createdAt,value
2023-04-03T00:00:52.531Z,2.90
2023-04-03T00:03:21.462Z,2.90
2023-04-03T00:05:49.638Z,2.83
2023-04-03T00:08:19.072Z,3.20
2023-04-03T00:10:47.308Z,3.00
2023-04-03T00:13:15.907Z,4.17
2023-04-03T00:15:43.975Z,4.40
2023-04-03T00:18:12.370Z,3.57
2023-04-03T00:20:40.348Z,3.13
2023-04-03T00:23:08.776Z,3.77
2023-04-03T00:25:38.262Z,3.10
2023-04-03T00:28:06.915Z,3.30
2023-04-03T00:30:35.585Z,3.10
2023-04-03T00:33:04.213Z,3.67
2023-04-03T00:35:32.810Z,2.90
2023-04-03T00:38:01.390Z,3.10
2023-04-03T00:40:29.782Z,2.90
2023-04-03T00:43:01.180Z,3.20
2023-04-03T00:45:34.316Z,2.87
2023-04-03T00:48:06.826Z,3.33
2023-04-03T00:50:39.405Z,3.17
2023-04-03T00:53:09.510Z,3.03
2023-04-03T00:55:39.941Z,3.10
2023-04-03T00:58:10.516Z,2.80
2023-04-03T01:00:41.089Z,2.63
2023-04-03T01:03:09.055Z,2.93
2023-04-03T01:05:37.179Z,2.53
2023-04-03T01:08:06.229Z,2.70
2023-04-03T01:10:34.268Z,2.53
2023-04-03T01:13:02.598Z,2.57
2023-04-03T01:15:36.169Z,2.23
2023-04-03T01:18:05.830Z,2.67
2023-04-03T01:21:01.883Z,2.20
2023-04-03T01:23:45.174Z,2.17
2023-04-03T01:26:13.805Z,2.37
2023-04-03T01:28:41.979Z,2.13
2023-04-03T01:31:17.753Z,2.37
2023-04-03T01:33:47.169Z,2.40
2023-04-03T01:36:17.819Z,2.60
2023-04-03T01:38:45.856Z,2.63
2023-04-03T01:41:13.825Z,1.90
2023-04-03T01:43:41.751Z,2.13
2023-04-03T01:46:09.969Z,2.50
2023-04-03T01:48:38.387Z,2.00
2023-04-03T01:51:07.704Z,2.17
2023-04-03T01:53:35.683Z,2.00
2023-04-03T01:56:03.876Z,2.17
2023-04-03T01:58:31.841Z,2.43
2023-04-03T02:00:59.937Z,2.23
2023-04-03T02:03:28.146Z,2.40
2023-04-03T02:05:56.279Z,2.23
2023-04-03T02:08:25.801Z,2.33
2023-04-03T02:10:54.047Z,2.20
2023-04-03T02:13:22.065Z,2.23
2023-04-03T02:15:50.060Z,1.87
2023-04-03T02:18:18.148Z,1.90
2023-04-03T02:20:46.313Z,2.00
2023-04-03T02:23:14.456Z,2.20
2023-04-03T02:25:43.775Z,2.13
2023-04-03T02:28:12.162Z,2.10
2023-04-03T02:30:40.478Z,2.00
2023-04-03T02:33:08.572Z,2.40
2023-04-03T02:35:37.904Z,2.43
2023-04-03T02:38:06.032Z,2.33
2023-04-03T02:40:33.986Z,2.10
2023-04-03T02:43:03.241Z,2.20
2023-04-03T02:45:31.180Z,2.00
2023-04-03T02:47:59.327Z,2.20
2023-04-03T02:50:27.341Z,2.40
2023-04-03T02:52:55.724Z,2.20
2023-04-03T02:55:23.781Z,2.30
2023-04-03T02:57:51.741Z,2.07
2023-04-03T03:00:22.160Z,2.10
2023-04-03T03:02:51.268Z,1.90
2023-04-03T03:05:19.664Z,1.93
2023-04-03T03:07:47.806Z,2.23
2023-04-03T03:10:15.924Z,2.20
2023-04-03T03:12:44.154Z,2.70
2023-04-03T03:15:12.774Z,1.97
2023-04-03T03:17:42.138Z,2.33
2023-04-03T03:20:11.044Z,2.00
2023-04-03T03:22:39.044Z,2.10
2023-04-03T03:25:07.721Z,2.27
2023-04-03T03:27:35.702Z,2.60
2023-04-03T03:30:03.700Z,2.43
2023-04-03T03:32:31.731Z,2.63
2023-04-03T03:35:01.128Z,2.60
2023-04-03T03:37:29.131Z,2.67
2023-04-03T03:39:57.083Z,2.67
2023-04-03T03:42:25.086Z,2.83
2023-04-03T03:44:53.163Z,2.90
2023-04-03T03:47:21.259Z,2.27
2023-04-03T03:49:49.342Z,2.40
2023-04-03T03:52:18.644Z,2.13
2023-04-03T03:54:46.547Z,2.30
2023-04-03T03:57:14.543Z,2.10
2023-04-03T03:59:42.861Z,2.00
2023-04-03T04:02:10.971Z,2.20
2023-04-03T04:04:39.256Z,2.53
2023-04-03T04:07:07.201Z,2.17
2023-04-03T04:09:36.509Z,2.60
2023-04-03T04:12:04.701Z,1.97
2023-04-03T04:14:32.636Z,2.00
2023-04-03T04:17:00.615Z,2.00
2023-04-03T04:19:28.760Z,1.77
2023-04-03T04:21:56.754Z,2.07
2023-04-03T04:24:25.124Z,2.00
2023-04-03T04:26:54.405Z,2.57
2023-04-03T04:29:22.704Z,1.83
2023-04-03T04:31:50.664Z,2.23
2023-04-03T04:34:18.590Z,2.20
2023-04-03T04:36:46.788Z,1.90
2023-04-03T04:39:14.795Z,2.00
2023-04-03T04:41:42.740Z,2.00
2023-04-03T04:44:12.129Z,1.93
2023-04-03T04:46:43.082Z,2.00
2023-04-03T04:49:11.123Z,2.60
2023-04-03T04:51:50.980Z,2.20
2023-04-03T04:54:20.046Z,2.50
2023-04-03T04:56:47.978Z,2.60
2023-04-03T04:59:17.932Z,2.50
2023-04-03T05:01:47.186Z,2.00
2023-04-03T05:04:16.180Z,2.30
2023-04-03T05:06:44.166Z,2.20
2023-04-03T05:09:12.097Z,2.43
2023-04-03T05:11:40.520Z,2.37
2023-04-03T05:14:08.568Z,2.40
2023-04-03T05:16:37.879Z,2.20
2023-04-03T05:19:06.320Z,2.40
2023-04-03T05:21:34.291Z,2.77
2023-04-03T05:24:03.779Z,2.33
2023-04-03T05:26:32.192Z,2.50
2023-04-03T05:29:00.304Z,2.33
2023-04-03T05:31:30.436Z,2.03
2023-04-03T05:34:00.269Z,2.00
2023-04-03T05:36:28.279Z,2.30
2023-04-03T05:38:57.318Z,2.40
2023-04-03T05:41:25.892Z,2.13
2023-04-03T05:43:53.848Z,2.10
2023-04-03T05:46:23.127Z,2.50
2023-04-03T05:48:51.530Z,2.07
2023-04-03T05:51:23.725Z,2.23
2023-04-03T05:53:57.864Z,1.87
2023-04-03T05:56:26.562Z,2.17
2023-04-03T05:58:54.515Z,2.10
2023-04-03T06:01:22.802Z,1.90
2023-04-03T06:03:50.962Z,1.90
2023-04-03T06:06:21.099Z,2.00
2023-04-03T06:08:49.442Z,1.73
2023-04-03T06:11:17.456Z,2.00
2023-04-03T06:13:46.156Z,1.53
2023-04-03T06:16:16.360Z,1.97
2023-04-03T06:18:44.311Z,2.00
2023-04-03T06:21:12.601Z,2.27
2023-04-03T06:23:41.842Z,1.90
2023-04-03T06:26:09.897Z,2.00
2023-04-03T06:28:38.008Z,2.10
2023-04-03T06:31:05.981Z,1.93
2023-04-03T06:33:33.940Z,2.30
2023-04-03T06:36:02.759Z,2.80
2023-04-03T06:38:31.039Z,2.23
2023-04-03T06:41:00.382Z,1.90
2023-04-03T06:43:28.372Z,1.80
2023-04-03T06:45:56.518Z,1.87
2023-04-03T06:48:24.924Z,1.60
2023-04-03T06:50:52.890Z,1.70
2023-04-03T06:53:21.162Z,1.70
2023-04-03T06:55:49.198Z,1.80
2023-04-03T06:58:21.753Z,1.87
2023-04-03T07:00:50.539Z,1.80
2023-04-03T07:03:19.100Z,2.03
2023-04-03T07:05:47.173Z,2.23
2023-04-03T07:08:15.148Z,1.80
2023-04-03T07:10:43.303Z,1.57
2023-04-03T07:13:11.302Z,1.97
2023-04-03T07:15:40.842Z,2.13
2023-04-03T07:18:09.312Z,1.90
2023-04-03T07:20:37.627Z,1.83
2023-04-03T07:23:05.725Z,2.10
2023-04-03T07:25:34.896Z,1.87
2023-04-03T07:28:03.358Z,1.90
2023-04-03T07:30:31.917Z,1.93
2023-04-03T07:33:01.955Z,2.13
2023-04-03T07:35:29.985Z,1.60
2023-04-03T07:37:57.985Z,1.70
2023-04-03T07:40:25.918Z,1.80
2023-04-03T07:42:53.874Z,1.90
2023-04-03T07:45:23.702Z,1.67
2023-04-03T07:47:51.656Z,1.87
2023-04-03T07:50:21.130Z,1.60
2023-04-03T07:52:49.830Z,2.13
2023-04-03T07:55:17.804Z,1.90
2023-04-03T07:57:46.324Z,1.80
2023-04-03T08:00:15.735Z,1.83
2023-04-03T08:02:43.937Z,1.87
2023-04-03T08:05:12.423Z,1.77
2023-04-03T08:07:41.748Z,1.80
2023-04-03T08:10:10.391Z,1.80
2023-04-03T08:12:38.883Z,1.80
2023-04-03T08:15:08.065Z,1.60
2023-04-03T08:17:36.627Z,1.70
2023-04-03T08:20:05.799Z,1.87
2023-04-03T08:22:33.864Z,2.00
2023-04-03T08:25:03.185Z,1.73
2023-04-03T08:27:34.527Z,1.60
2023-04-03T08:30:02.619Z,1.80
2023-04-03T08:32:30.689Z,1.57
2023-04-03T08:34:58.639Z,2.10
2023-04-03T08:37:26.567Z,1.50
2023-04-03T08:39:54.714Z,1.80
2023-04-03T08:42:36.612Z,1.77
2023-04-03T08:45:12.170Z,1.70
2023-04-03T08:47:44.444Z,1.80
2023-04-03T08:50:15.983Z,1.77
2023-04-03T08:52:46.440Z,1.80
2023-04-03T08:55:24.112Z,1.60
2023-04-03T08:57:59.576Z,1.87
2023-04-03T09:00:31.845Z,2.03
2023-04-03T09:03:00.021Z,1.70
2023-04-03T09:05:41.408Z,1.37
2023-04-03T09:08:18.608Z,1.97
2023-04-03T09:10:47.237Z,1.90
2023-04-03T09:13:27.081Z,1.73
2023-04-03T09:15:56.186Z,1.67
2023-04-03T09:18:28.926Z,1.93
2023-04-03T09:21:04.861Z,2.03
2023-04-03T09:23:40.127Z,1.50
2023-04-03T09:26:13.620Z,1.93
2023-04-03T09:28:50.527Z,2.20
2023-04-03T09:31:23.982Z,1.90
2023-04-03T09:33:55.157Z,1.70
2023-04-03T09:36:43.526Z,1.90
2023-04-03T09:39:16.982Z,1.60
2023-04-03T09:41:56.792Z,1.80
2023-04-03T09:44:28.088Z,2.10
2023-04-03T09:46:56.593Z,1.77
2023-04-03T09:49:24.827Z,1.80
2023-04-03T09:51:52.927Z,1.80
2023-04-03T09:54:40.933Z,2.07
2023-04-03T09:57:12.868Z,1.80
2023-04-03T09:59:49.995Z,1.87
2023-04-03T10:02:34.189Z,1.67
2023-04-03T10:07:36.802Z,2.17
2023-04-03T10:10:26.555Z,1.80
2023-04-03T10:13:08.204Z,1.80
2023-04-03T10:15:45.025Z,1.80
2023-04-03T10:18:31.086Z,1.80
2023-04-03T10:21:14.406Z,1.70
2023-04-03T10:23:51.328Z,1.40
2023-04-03T10:26:31.536Z,1.47
2023-04-03T10:29:10.269Z,1.77
2023-04-03T10:31:48.002Z,1.33
2023-04-03T10:34:23.704Z,1.90
2023-04-03T10:36:59.353Z,1.50
2023-04-03T10:39:35.912Z,1.27
2023-04-03T10:42:17.589Z,1.60
2023-04-03T10:45:03.281Z,1.70
2023-04-03T10:47:42.025Z,1.43
2023-04-03T10:50:26.259Z,1.40
2023-04-03T10:52:59.651Z,1.47
2023-04-03T10:55:37.132Z,1.43
2023-04-03T10:58:07.049Z,1.37
2023-04-03T11:00:41.157Z,1.30
2023-04-03T11:03:16.085Z,1.50
2023-04-03T11:05:47.922Z,1.73
2023-04-03T11:08:28.339Z,1.60
2023-04-03T11:11:01.167Z,1.43
2023-04-03T11:13:34.814Z,1.30
2023-04-03T11:16:04.913Z,1.90
2023-04-03T11:18:40.120Z,1.30
2023-04-03T11:21:11.803Z,1.27
2023-04-03T11:23:49.670Z,1.50
2023-04-03T11:26:22.128Z,1.30
2023-04-03T11:28:55.355Z,1.27
2023-04-03T11:31:34.625Z,1.40
2023-04-03T11:34:16.599Z,1.20
2023-04-03T11:36:48.445Z,1.43
2023-04-03T11:39:25.208Z,1.30
2023-04-03T11:42:06.633Z,1.60
2023-04-03T11:44:42.580Z,1.27
2023-04-03T11:47:12.760Z,1.10
2023-04-03T11:50:05.029Z,1.40
2023-04-03T11:53:02.361Z,1.30
2023-04-03T11:56:31.405Z,1.43
2023-04-03T11:59:25.576Z,1.70
2023-04-03T12:01:54.814Z,1.50
2023-04-03T12:04:24.944Z,1.30
2023-04-03T12:07:14.647Z,1.33
2023-04-03T12:10:05.271Z,1.60
2023-04-03T12:12:39.856Z,1.80
2023-04-03T12:15:46.681Z,1.40
2023-04-03T12:18:51.812Z,1.60
2023-04-03T12:21:20.905Z,1.80
2023-04-03T12:24:25.792Z,1.40
2023-04-03T12:27:05.113Z,1.53
2023-04-03T12:29:44.834Z,1.60
2023-04-03T12:32:26.586Z,1.40
2023-04-03T12:35:14.810Z,1.37
2023-04-03T12:37:59.696Z,1.40
2023-04-03T12:40:36.002Z,1.57
2023-04-03T12:43:34.165Z,1.50
2023-04-03T12:46:05.958Z,1.40
2023-04-03T12:48:41.353Z,1.70
2023-04-03T12:51:09.443Z,1.30
2023-04-03T12:53:39.612Z,1.47
2023-04-03T12:56:27.384Z,1.67
2023-04-03T12:58:58.292Z,1.40
2023-04-03T13:01:27.552Z,1.40
2023-04-03T13:03:58.313Z,1.37
2023-04-03T13:06:30.008Z,1.40
2023-04-03T13:09:00.279Z,1.20
2023-04-03T13:11:35.070Z,1.37
2023-04-03T13:14:06.170Z,1.63
2023-04-03T13:16:35.497Z,1.50
2023-04-03T13:19:03.608Z,1.53
2023-04-03T13:21:34.873Z,1.27
2023-04-03T13:24:14.614Z,1.40
2023-04-03T13:26:45.644Z,1.33
2023-04-03T13:29:30.968Z,1.50
2023-04-03T13:32:02.225Z,1.70
2023-04-03T13:34:37.308Z,1.40
2023-04-03T13:37:06.430Z,1.30
2023-04-03T13:39:36.311Z,1.63
2023-04-03T13:45:25.039Z,1.60
2023-04-03T13:47:55.934Z,1.80
2023-04-03T13:50:26.520Z,1.60
2023-04-03T13:52:56.481Z,1.70
2023-04-03T13:55:27.586Z,1.67
2023-04-03T13:58:00.966Z,1.40
2023-04-03T14:00:38.089Z,1.50
2023-04-03T14:03:14.946Z,1.90
2023-04-03T14:05:42.887Z,1.53
2023-04-03T14:08:11.216Z,1.53
2023-04-03T14:10:39.837Z,1.77
2023-04-03T14:13:11.299Z,1.90
2023-04-03T14:15:39.558Z,1.70
2023-04-03T14:18:08.106Z,1.50
2023-04-03T14:20:36.509Z,1.60
2023-04-03T14:23:04.802Z,1.73
2023-04-03T14:25:32.913Z,1.70
2023-04-03T14:28:01.098Z,1.83
2023-04-03T14:30:32.912Z,1.70
2023-04-03T14:33:01.972Z,1.50
2023-04-03T14:35:30.417Z,1.80
2023-04-03T14:37:58.616Z,1.90
2023-04-03T14:40:28.973Z,2.07
2023-04-03T14:42:58.437Z,2.07
2023-04-03T14:45:27.315Z,2.13
2023-04-03T14:47:58.277Z,2.90
2023-04-03T14:50:28.742Z,2.23
2023-04-03T14:52:58.879Z,1.70
2023-04-03T14:55:28.687Z,1.80
2023-04-03T14:57:56.924Z,2.20
2023-04-03T15:00:25.468Z,1.70
2023-04-03T15:02:53.934Z,1.60
2023-04-03T15:05:23.820Z,1.60
2023-04-03T15:07:55.782Z,1.60
2023-04-03T15:10:26.389Z,2.00
2023-04-03T15:12:55.737Z,2.10
2023-04-03T15:15:25.776Z,1.60
2023-04-03T15:17:55.930Z,1.70
2023-04-03T15:20:27.547Z,1.40
2023-04-03T15:22:57.330Z,1.83
2023-04-03T15:25:26.302Z,1.47
2023-04-03T15:27:55.356Z,1.80
2023-04-03T15:30:23.939Z,1.80
2023-04-03T15:32:54.421Z,1.70
2023-04-03T15:35:22.583Z,1.70
2023-04-03T15:37:52.450Z,1.73
2023-04-03T15:40:20.619Z,1.60
2023-04-03T15:42:48.665Z,1.60
2023-04-03T15:45:16.708Z,1.50
2023-04-03T15:47:45.215Z,1.50
2023-04-03T15:50:13.571Z,2.00
2023-04-03T15:52:41.612Z,2.17
2023-04-03T15:55:11.496Z,1.30
2023-04-03T16:00:10.043Z,2.00
2023-04-03T16:02:38.135Z,1.83
2023-04-03T16:05:06.904Z,3.13
2023-04-03T16:07:35.137Z,2.40
2023-04-03T16:10:03.216Z,2.20
2023-04-03T16:12:32.663Z,2.43
2023-04-03T16:15:00.868Z,2.37
2023-04-03T16:17:29.280Z,2.40
2023-04-03T16:19:58.194Z,3.23
2023-04-03T16:22:28.066Z,2.67
2023-04-03T16:24:56.665Z,2.83
2023-04-03T16:27:28.433Z,2.80
2023-04-03T16:29:57.749Z,3.47
2023-04-03T16:32:27.692Z,1.90
2023-04-03T16:34:55.856Z,1.70
2023-04-03T16:37:24.390Z,2.20
2023-04-03T16:39:53.301Z,1.50
2023-04-03T16:42:21.560Z,1.80
2023-04-03T16:44:49.732Z,1.70
2023-04-03T16:47:20.734Z,1.83
2023-04-03T16:49:48.996Z,1.93
2023-04-03T16:52:17.055Z,2.17
2023-04-03T16:54:45.053Z,1.80
2023-04-03T16:57:13.092Z,1.83
2023-04-03T16:59:41.294Z,2.00
2023-04-03T17:02:09.282Z,2.33
2023-04-03T17:04:38.709Z,2.10
2023-04-03T17:07:07.180Z,2.87
2023-04-03T17:09:35.539Z,2.27
2023-04-03T17:12:03.823Z,2.60
2023-04-03T17:14:31.947Z,2.60
2023-04-03T17:17:00.194Z,2.80
2023-04-03T17:19:29.512Z,2.67
2023-04-03T17:21:59.051Z,2.67
2023-04-03T17:24:27.720Z,3.53
2023-04-03T17:26:55.910Z,3.73
2023-04-03T17:29:23.929Z,3.73
2023-04-03T17:31:52.145Z,3.30
2023-04-03T17:34:20.230Z,2.93
2023-04-03T17:36:48.348Z,3.40
2023-04-03T17:39:17.890Z,3.97
2023-04-03T17:41:47.056Z,3.77
2023-04-03T17:44:15.290Z,5.10
2023-04-03T17:46:43.666Z,4.20
2023-04-03T17:49:14.918Z,4.00
2023-04-03T17:51:43.458Z,4.37
2023-04-03T17:54:11.854Z,5.57
2023-04-03T17:56:43.525Z,4.90
2023-04-03T17:59:11.611Z,5.23
2023-04-03T18:01:40.391Z,5.23
2023-04-03T18:04:08.423Z,4.97
2023-04-03T18:06:41.451Z,5.17
2023-04-03T18:09:14.663Z,4.43
2023-04-03T18:11:45.384Z,4.63
2023-04-03T18:14:15.572Z,5.70
2023-04-03T18:16:43.926Z,8.40
2023-04-03T18:22:03.405Z,4.17
2023-04-03T18:24:34.054Z,4.47
2023-04-03T18:27:07.282Z,5.50
2023-04-03T18:29:38.430Z,6.80
2023-04-03T18:32:08.787Z,6.80
2023-04-03T18:34:36.894Z,7.83
2023-04-03T18:37:06.167Z,5.67
2023-04-03T18:39:34.232Z,4.00
2023-04-03T18:42:07.699Z,4.63
2023-04-03T18:44:37.335Z,3.60
2023-04-03T18:47:05.661Z,3.73
2023-04-03T18:49:35.596Z,3.10
2023-04-03T18:52:04.685Z,3.37
2023-04-03T18:54:32.768Z,4.87
2023-04-03T18:57:01.289Z,5.20
2023-04-03T18:59:30.802Z,4.47
2023-04-03T19:02:00.291Z,3.57
2023-04-03T19:04:29.692Z,2.70
2023-04-03T19:06:57.735Z,3.40
2023-04-03T19:09:26.908Z,3.10
2023-04-03T19:11:54.900Z,3.23
2023-04-03T19:14:23.069Z,2.67
2023-04-03T19:16:52.582Z,2.90
2023-04-03T19:19:20.547Z,3.23
2023-04-03T19:21:48.657Z,2.80
2023-04-03T19:24:16.592Z,3.43
2023-04-03T19:26:44.646Z,2.83
2023-04-03T19:29:13.037Z,3.07
2023-04-03T19:31:41.511Z,2.80
2023-04-03T19:34:11.242Z,4.00
2023-04-03T19:36:40.768Z,3.87
2023-04-03T19:39:08.778Z,3.40
2023-04-03T19:41:37.950Z,3.20
2023-04-03T19:44:07.844Z,3.37
2023-04-03T19:46:36.589Z,2.93
2023-04-03T19:49:05.176Z,2.97
2023-04-03T19:51:34.474Z,3.63
2023-04-03T19:54:02.597Z,3.20
2023-04-03T19:56:30.652Z,3.50
2023-04-03T19:58:58.716Z,3.93
2023-04-03T20:01:27.924Z,3.13
2023-04-03T20:03:55.910Z,3.23
2023-04-03T20:06:24.002Z,3.73
2023-04-03T20:08:54.601Z,3.10
2023-04-03T20:11:22.840Z,3.60
2023-04-03T20:13:51.158Z,4.00
2023-04-03T20:16:22.565Z,3.73
2023-04-03T20:18:52.453Z,3.57
2023-04-03T20:21:20.629Z,3.30
2023-04-03T20:23:48.750Z,3.00
2023-04-03T20:26:24.691Z,3.30
2023-04-03T20:28:53.876Z,3.07
2023-04-03T20:31:22.237Z,3.43
2023-04-03T20:33:51.415Z,3.00
2023-04-03T20:36:21.696Z,2.83
2023-04-03T20:38:50.580Z,3.20
2023-04-03T20:41:18.768Z,2.50
2023-04-03T20:43:49.243Z,3.00
2023-04-03T20:46:19.906Z,2.70
2023-04-03T20:48:48.952Z,2.50
2023-04-03T20:51:19.335Z,2.70
2023-04-03T20:53:47.980Z,2.77
2023-04-03T20:56:17.094Z,3.00
2023-04-03T20:58:47.615Z,2.83
2023-04-03T21:01:17.827Z,3.13
2023-04-03T21:03:46.633Z,3.53
2023-04-03T21:06:52.206Z,3.27
2023-04-03T21:09:57.903Z,3.50
2023-04-03T21:13:05.018Z,3.50
2023-04-03T21:15:48.925Z,3.43
2023-04-03T21:18:43.819Z,3.10
2023-04-03T21:21:20.293Z,4.80
2023-04-03T21:23:49.227Z,4.90
2023-04-03T21:26:18.089Z,4.67
2023-04-03T21:28:46.548Z,5.50
2023-04-03T21:31:15.269Z,5.43
2023-04-03T21:33:45.232Z,5.13
2023-04-03T21:36:13.537Z,6.10
2023-04-03T21:38:41.693Z,5.30
2023-04-03T21:41:09.775Z,11.93
2023-04-03T21:43:37.918Z,8.20
2023-04-03T21:46:06.321Z,4.90
2023-04-03T21:48:36.165Z,4.20
2023-04-03T21:51:06.738Z,4.67
2023-04-03T21:53:35.532Z,4.17
2023-04-03T21:56:03.765Z,3.33
2023-04-03T21:58:32.381Z,3.57
2023-04-03T22:01:08.996Z,3.87
2023-04-03T22:03:37.101Z,3.37
2023-04-03T22:06:06.896Z,3.03
2023-04-03T22:08:35.147Z,3.53
2023-04-03T22:11:03.747Z,3.27
2023-04-03T22:13:31.769Z,3.40
2023-04-03T22:16:00.241Z,2.80
2023-04-03T22:18:28.188Z,3.30
2023-04-03T22:20:56.514Z,3.13
2023-04-03T22:23:27.278Z,3.00
2023-04-03T22:25:59.416Z,2.73
2023-04-03T22:28:27.821Z,4.00
2023-04-03T22:30:56.055Z,3.87
2023-04-03T22:33:24.356Z,2.77
2023-04-03T22:35:52.865Z,3.30
2023-04-03T22:38:21.448Z,3.50
2023-04-03T22:40:58.122Z,3.83
2023-04-03T22:43:26.637Z,4.43
2023-04-03T22:45:54.971Z,3.70
2023-04-03T22:48:23.601Z,3.70
2023-04-03T22:50:51.884Z,3.20
2023-04-03T22:53:20.466Z,3.27
2023-04-03T22:55:56.961Z,3.93
2023-04-03T22:58:26.836Z,3.80
2023-04-03T23:00:55.524Z,3.80
2023-04-03T23:03:24.433Z,4.40
2023-04-03T23:05:52.809Z,4.00
2023-04-03T23:08:21.007Z,3.23
2023-04-03T23:10:48.970Z,3.97
2023-04-03T23:13:18.256Z,3.90
2023-04-03T23:15:46.149Z,3.97
2023-04-03T23:18:14.076Z,3.13
2023-04-03T23:20:42.178Z,3.47
2023-04-03T23:23:10.688Z,3.60
2023-04-03T23:25:38.632Z,3.07
2023-04-03T23:28:06.712Z,2.93
2023-04-03T23:30:36.249Z,3.50
2023-04-03T23:33:04.233Z,2.97
2023-04-03T23:35:32.264Z,3.20
2023-04-03T23:38:00.261Z,2.70
2023-04-03T23:40:28.570Z,2.43
2023-04-03T23:42:57.122Z,2.87
2023-04-03T23:45:25.110Z,3.10
2023-04-03T23:47:54.436Z,3.00
2023-04-03T23:50:22.404Z,3.50
2023-04-03T23:52:50.423Z,3.20
2023-04-03T23:55:18.421Z,3.60
2023-04-03T23:57:46.648Z,2.80
